createdAt,value
2019-03-18T00:00:35.411Z,100.00
2019-03-18T00:03:01.675Z,100.00
2019-03-18T00:06:09.246Z,100.00
2019-03-18T00:08:35.574Z,100.00
2019-03-18T00:11:01.864Z,100.00
2019-03-18T00:13:28.151Z,100.00
2019-03-18T00:15:54.435Z,100.00
2019-03-18T00:18:20.717Z,100.00
2019-03-18T00:20:47.034Z,100.00
2019-03-18T00:23:13.315Z,100.00
2019-03-18T00:25:39.649Z,100.00
2019-03-18T00:28:05.873Z,100.00
2019-03-18T00:30:32.113Z,100.00
2019-03-18T00:32:58.357Z,100.00
2019-03-18T00:35:24.607Z,100.00
2019-03-18T00:37:50.847Z,100.00
2019-03-18T00:40:58.403Z,100.00
2019-03-18T00:43:24.654Z,100.00
2019-03-18T00:45:50.914Z,100.00
2019-03-18T00:48:17.155Z,100.00
2019-03-18T00:50:43.402Z,100.00
2019-03-18T00:53:09.679Z,100.00
2019-03-18T00:55:35.948Z,100.00
2019-03-18T00:58:02.190Z,100.00
2019-03-18T01:00:28.452Z,100.00
2019-03-18T01:02:54.688Z,100.00
2019-03-18T01:05:20.935Z,100.00
2019-03-18T01:07:47.265Z,100.00
2019-03-18T01:10:54.845Z,100.00
2019-03-18T01:13:21.099Z,100.00
2019-03-18T01:15:47.359Z,100.00
2019-03-18T01:18:13.600Z,100.00
2019-03-18T01:20:39.868Z,100.00
2019-03-18T01:23:06.108Z,100.00
2019-03-18T01:25:32.356Z,100.00
2019-03-18T01:27:58.589Z,100.00
2019-03-18T01:30:24.841Z,100.00
2019-03-18T01:32:51.088Z,100.00
2019-03-18T01:35:17.318Z,100.00
2019-03-18T01:37:43.560Z,100.00
2019-03-18T01:40:51.110Z,100.00
2019-03-18T01:43:17.342Z,100.00
2019-03-18T01:45:43.591Z,100.00
2019-03-18T01:48:09.864Z,100.00
2019-03-18T01:50:36.092Z,100.00
2019-03-18T01:53:02.342Z,100.00
2019-03-18T01:55:28.565Z,100.00
2019-03-18T01:57:54.825Z,100.00
2019-03-18T02:00:21.059Z,100.00
2019-03-18T02:02:47.306Z,100.00
2019-03-18T02:05:13.554Z,100.00
2019-03-18T02:07:39.823Z,100.00
2019-03-18T02:13:20.072Z,100.00
2019-03-18T02:15:53.153Z,100.00
2019-03-18T02:18:14.477Z,100.00
2019-03-18T02:20:40.713Z,100.00
2019-03-18T02:23:06.967Z,100.00
2019-03-18T02:25:33.241Z,100.00
2019-03-18T02:27:59.500Z,100.00
2019-03-18T02:30:25.747Z,100.00
2019-03-18T02:32:52.001Z,100.00
2019-03-18T02:35:18.239Z,100.00
2019-03-18T02:37:44.490Z,100.00
2019-03-18T02:40:52.041Z,100.00
2019-03-18T02:43:18.290Z,100.00
2019-03-18T02:45:44.534Z,100.00
2019-03-18T02:48:10.788Z,100.00
2019-03-18T02:50:37.023Z,100.00
2019-03-18T02:53:03.271Z,100.00
2019-03-18T02:55:29.540Z,100.00
2019-03-18T02:57:55.765Z,100.00
2019-03-18T03:00:22.100Z,100.00
2019-03-18T03:02:48.338Z,100.00
2019-03-18T03:05:14.611Z,100.00
2019-03-18T03:07:40.845Z,100.00
2019-03-18T03:13:05.730Z,100.00
2019-03-18T03:15:31.950Z,100.00
2019-03-18T03:17:58.175Z,100.00
2019-03-18T03:20:24.420Z,100.00
2019-03-18T03:22:50.657Z,100.00
2019-03-18T03:25:16.920Z,100.00
2019-03-18T03:27:43.161Z,100.00
2019-03-18T03:30:50.705Z,100.00
2019-03-18T03:33:16.951Z,100.00
2019-03-18T03:35:43.208Z,100.00
2019-03-18T03:38:09.447Z,100.00
2019-03-18T03:40:35.700Z,100.00
2019-03-18T03:43:01.948Z,100.00
2019-03-18T03:45:28.197Z,100.00
2019-03-18T03:47:54.428Z,100.00
2019-03-18T03:50:20.681Z,100.00
2019-03-18T03:52:46.917Z,100.00
2019-03-18T03:55:13.284Z,100.00
2019-03-18T03:57:39.735Z,100.00
2019-03-18T04:00:47.259Z,100.00
2019-03-18T04:03:13.518Z,100.00
2019-03-18T04:05:39.738Z,100.00
2019-03-18T04:08:06.006Z,100.00
2019-03-18T04:10:32.262Z,100.00
2019-03-18T04:12:58.516Z,100.00
2019-03-18T04:15:24.764Z,100.00
2019-03-18T04:17:50.998Z,100.00
2019-03-18T04:20:17.277Z,100.00
2019-03-18T04:22:43.506Z,100.00
2019-03-18T04:25:09.729Z,100.00
2019-03-18T04:27:35.976Z,100.00
2019-03-18T04:32:56.838Z,100.00
2019-03-18T04:35:23.067Z,100.00
2019-03-18T04:37:49.306Z,100.00
2019-03-18T04:40:15.564Z,100.00
2019-03-18T04:42:41.800Z,100.00
2019-03-18T04:51:17.792Z,100.00
2019-03-18T04:53:44.026Z,100.00
2019-03-18T04:56:10.280Z,100.00
2019-03-18T04:58:36.523Z,100.00
2019-03-18T05:01:02.774Z,100.00
2019-03-18T05:03:29.009Z,100.00
2019-03-18T05:05:55.274Z,100.00
2019-03-18T05:08:21.508Z,100.00
2019-03-18T05:10:47.749Z,100.00
2019-03-18T05:13:14.004Z,100.00
2019-03-18T05:15:40.246Z,100.00
2019-03-18T05:18:06.493Z,100.00
2019-03-18T05:20:32.723Z,100.00
2019-03-18T05:22:58.992Z,100.00
2019-03-18T05:25:25.230Z,100.00
2019-03-18T05:27:51.483Z,100.00
2019-03-18T05:30:17.718Z,100.00
2019-03-18T05:32:43.977Z,100.00
2019-03-18T05:35:10.233Z,100.00
2019-03-18T05:37:36.475Z,100.00
2019-03-18T05:40:24.270Z,100.00
2019-03-18T05:42:50.530Z,100.00
2019-03-18T05:45:16.776Z,100.00
2019-03-18T05:47:43.022Z,100.00
2019-03-18T05:53:23.414Z,100.00
2019-03-18T05:55:49.649Z,100.00
2019-03-18T05:58:15.908Z,100.00
2019-03-18T06:00:42.143Z,100.00
2019-03-18T06:03:08.396Z,100.00
2019-03-18T06:05:34.640Z,99.94
2019-03-18T06:08:00.919Z,99.79
2019-03-18T06:10:27.151Z,99.65
2019-03-18T06:12:53.395Z,99.56
2019-03-18T06:15:19.639Z,99.52
2019-03-18T06:17:52.423Z,99.44
2019-03-18T06:20:14.143Z,99.37
2019-03-18T06:22:40.392Z,99.32
2019-03-18T06:28:20.023Z,98.94
2019-03-18T06:30:46.271Z,98.79
2019-03-18T06:33:12.524Z,98.65
2019-03-18T06:35:38.755Z,98.42
2019-03-18T06:38:05.007Z,98.13
2019-03-18T06:40:31.242Z,98.08
2019-03-18T06:42:57.481Z,97.97
2019-03-18T06:45:23.734Z,97.78
2019-03-18T06:47:49.979Z,97.30
2019-03-18T06:50:16.232Z,97.18
2019-03-18T06:52:42.464Z,97.21
2019-03-18T06:55:08.827Z,96.29
2019-03-18T06:57:35.067Z,96.34
2019-03-18T07:00:01.319Z,96.13
2019-03-18T07:02:27.550Z,95.59
2019-03-18T07:04:53.804Z,95.69
2019-03-18T07:07:20.167Z,94.63
2019-03-18T07:09:46.424Z,93.56
2019-03-18T07:12:12.659Z,94.05
2019-03-18T07:14:38.911Z,93.93
2019-03-18T07:17:05.153Z,93.77
2019-03-18T07:19:31.424Z,93.97
2019-03-18T07:21:57.675Z,94.24
2019-03-18T07:24:23.927Z,94.15
2019-03-18T07:26:50.186Z,94.25
2019-03-18T07:29:16.434Z,94.33
2019-03-18T07:31:42.676Z,94.10
2019-03-18T07:34:08.909Z,93.98
2019-03-18T07:36:35.171Z,93.74
2019-03-18T07:39:01.400Z,93.71
2019-03-18T07:41:27.650Z,93.65
2019-03-18T07:43:53.885Z,93.09
2019-03-18T07:46:20.136Z,93.37
2019-03-18T07:48:46.375Z,92.98
2019-03-18T07:51:12.646Z,92.39
2019-03-18T07:53:38.883Z,92.01
2019-03-18T07:56:05.153Z,92.24
2019-03-18T07:58:31.399Z,91.92
2019-03-18T08:00:57.832Z,91.58
2019-03-18T08:03:24.111Z,90.77
2019-03-18T08:05:50.361Z,90.65
2019-03-18T08:08:16.719Z,90.60
2019-03-18T08:10:42.996Z,90.74
2019-03-18T08:13:09.250Z,91.00
2019-03-18T08:15:35.506Z,91.47
2019-03-18T08:18:01.769Z,91.46
2019-03-18T08:20:28.008Z,91.54
2019-03-18T08:22:54.261Z,91.16
2019-03-18T08:25:20.516Z,90.88
2019-03-18T08:27:46.764Z,91.28
2019-03-18T08:33:05.105Z,91.07
2019-03-18T08:35:31.355Z,91.45
2019-03-18T08:37:57.702Z,91.62
2019-03-18T08:40:23.945Z,91.94
2019-03-18T08:42:50.209Z,92.12
2019-03-18T08:45:16.470Z,91.54
2019-03-18T08:47:42.709Z,91.61
2019-03-18T08:53:01.060Z,91.54
2019-03-18T08:55:28.086Z,91.23
2019-03-18T08:57:55.471Z,91.54
2019-03-18T09:00:21.723Z,92.12
2019-03-18T09:02:47.970Z,92.23
2019-03-18T09:05:14.225Z,92.36
2019-03-18T09:07:40.492Z,92.00
2019-03-18T09:13:03.848Z,91.14
2019-03-18T09:15:30.084Z,89.31
2019-03-18T09:17:56.339Z,89.57
2019-03-18T09:20:22.570Z,88.75
2019-03-18T09:22:48.821Z,89.23
2019-03-18T09:25:15.083Z,89.06
2019-03-18T09:27:41.364Z,89.39
2019-03-18T09:30:27.564Z,89.01
2019-03-18T09:32:53.818Z,88.37
2019-03-18T09:38:17.197Z,87.27
2019-03-18T09:40:43.447Z,86.75
2019-03-18T09:43:09.710Z,86.33
2019-03-18T09:45:35.961Z,86.15
2019-03-18T09:51:04.261Z,86.26
2019-03-18T09:53:30.534Z,85.84
2019-03-18T09:55:56.787Z,85.90
2019-03-18T09:58:23.367Z,85.47
2019-03-18T10:00:49.605Z,85.57
2019-03-18T10:03:15.844Z,85.83
2019-03-18T10:05:43.982Z,85.99
2019-03-18T10:08:10.296Z,85.60
2019-03-18T10:10:36.570Z,85.42
2019-03-18T10:13:02.803Z,84.99
2019-03-18T10:15:29.063Z,85.43
2019-03-18T10:17:55.324Z,85.35
2019-03-18T10:20:21.591Z,85.71
2019-03-18T10:22:47.850Z,85.57
2019-03-18T10:25:14.096Z,85.50
2019-03-18T10:27:40.333Z,85.02
2019-03-18T10:30:47.901Z,84.96
2019-03-18T10:33:14.153Z,84.92
2019-03-18T10:35:40.414Z,84.96
2019-03-18T10:38:06.643Z,85.24
2019-03-18T10:40:32.887Z,84.99
2019-03-18T10:42:59.124Z,85.33
2019-03-18T10:45:26.154Z,85.38
2019-03-18T10:47:54.873Z,85.04
2019-03-18T10:50:21.670Z,85.00
2019-03-18T10:52:47.919Z,85.42
2019-03-18T10:55:14.176Z,85.84
2019-03-18T10:57:40.391Z,85.85
2019-03-18T11:00:48.138Z,86.10
2019-03-18T11:03:14.416Z,86.07
2019-03-18T11:05:40.673Z,86.30
2019-03-18T11:08:06.934Z,86.60
2019-03-18T11:10:33.188Z,86.22
2019-03-18T11:12:59.430Z,85.70
2019-03-18T11:15:25.688Z,85.84
2019-03-18T11:17:51.939Z,85.96
2019-03-18T11:20:18.182Z,86.07
2019-03-18T11:22:44.557Z,85.97
2019-03-18T11:28:12.087Z,86.57
2019-03-18T11:30:38.334Z,85.93
2019-03-18T11:33:04.593Z,86.49
2019-03-18T11:35:30.835Z,85.89
2019-03-18T11:37:57.109Z,85.69
2019-03-18T11:40:23.408Z,85.64
2019-03-18T11:42:49.777Z,85.95
2019-03-18T11:45:16.123Z,85.24
2019-03-18T11:47:42.361Z,85.19
2019-03-18T11:50:49.897Z,83.73
2019-03-18T11:53:16.150Z,83.53
2019-03-18T11:55:42.383Z,83.14
2019-03-18T11:58:08.645Z,82.68
2019-03-18T12:00:56.412Z,82.62
2019-03-18T12:03:22.654Z,82.00
2019-03-18T12:05:48.902Z,82.83
2019-03-18T12:08:15.172Z,83.02
2019-03-18T12:10:41.417Z,83.15
2019-03-18T12:13:07.668Z,83.18
2019-03-18T12:15:36.415Z,83.76
2019-03-18T12:18:02.068Z,83.87
2019-03-18T12:20:28.308Z,84.02
2019-03-18T12:22:54.667Z,84.24
2019-03-18T12:25:20.897Z,84.42
2019-03-18T12:27:47.158Z,84.05
2019-03-18T12:30:33.261Z,83.11
2019-03-18T12:32:59.518Z,84.21
2019-03-18T12:35:25.747Z,83.38
2019-03-18T12:37:52.405Z,84.67
2019-03-18T12:40:18.649Z,84.98
2019-03-18T12:42:44.897Z,85.56
2019-03-18T12:45:30.886Z,85.68
2019-03-18T12:47:57.131Z,85.73
2019-03-18T12:51:04.681Z,85.75
2019-03-18T12:53:30.925Z,86.05
2019-03-18T12:55:57.163Z,86.53
2019-03-18T12:58:23.425Z,86.14
2019-03-18T13:00:49.662Z,86.00
2019-03-18T13:03:15.929Z,86.30
2019-03-18T13:05:42.272Z,85.96
2019-03-18T13:08:08.553Z,85.88
2019-03-18T13:10:34.806Z,85.95
2019-03-18T13:13:01.059Z,86.33
2019-03-18T13:15:27.296Z,86.88
2019-03-18T13:17:53.528Z,87.41
2019-03-18T13:20:41.330Z,87.90
2019-03-18T13:23:07.574Z,88.23
2019-03-18T13:25:33.822Z,88.35
2019-03-18T13:28:00.058Z,88.38
2019-03-18T13:30:26.321Z,88.49
2019-03-18T13:32:52.563Z,89.61
2019-03-18T13:35:18.809Z,89.94
2019-03-18T13:37:45.040Z,90.38
2019-03-18T13:40:31.045Z,90.86
2019-03-18T13:42:57.312Z,90.98
2019-03-18T13:45:23.566Z,90.81
2019-03-18T13:47:50.087Z,90.99
2019-03-18T13:50:57.652Z,91.25
2019-03-18T13:53:23.887Z,91.54
2019-03-18T13:55:50.166Z,91.24
2019-03-18T13:58:16.395Z,91.52
2019-03-18T14:00:42.635Z,91.87
2019-03-18T14:03:08.989Z,92.17
2019-03-18T14:05:35.247Z,91.84
2019-03-18T14:08:01.609Z,91.57
2019-03-18T14:10:27.860Z,91.72
2019-03-18T14:12:54.113Z,91.90
2019-03-18T14:16:01.654Z,91.43
2019-03-18T14:18:27.888Z,91.88
2019-03-18T14:20:54.155Z,92.10
2019-03-18T14:23:20.375Z,92.16
2019-03-18T14:25:46.635Z,92.58
2019-03-18T14:28:12.860Z,92.66
2019-03-18T14:30:39.099Z,92.79
2019-03-18T14:33:05.332Z,92.57
2019-03-18T14:35:31.576Z,92.34
2019-03-18T14:37:57.820Z,92.38
2019-03-18T14:41:05.400Z,92.29
2019-03-18T14:43:31.645Z,92.32
2019-03-18T14:45:57.912Z,91.99
2019-03-18T14:48:24.136Z,92.61
2019-03-18T14:50:50.416Z,92.67
2019-03-18T14:53:16.643Z,92.97
2019-03-18T14:55:42.876Z,92.74
2019-03-18T14:58:09.124Z,91.75
2019-03-18T15:00:35.355Z,92.55
2019-03-18T15:03:01.614Z,92.11
2019-03-18T15:05:27.842Z,92.11
2019-03-18T15:07:54.136Z,92.14
2019-03-18T15:13:33.771Z,92.12
2019-03-18T15:15:59.996Z,91.70
2019-03-18T15:18:26.243Z,92.00
2019-03-18T15:20:52.475Z,92.14
2019-03-18T15:23:18.732Z,92.48
2019-03-18T15:25:44.961Z,92.20
2019-03-18T15:28:11.502Z,92.23
2019-03-18T15:30:37.899Z,92.46
2019-03-18T15:33:04.307Z,92.90
2019-03-18T15:35:30.555Z,92.76
2019-03-18T15:37:56.789Z,92.81
2019-03-18T15:41:04.318Z,92.88
2019-03-18T15:43:30.575Z,93.00
2019-03-18T15:45:56.814Z,92.94
2019-03-18T15:48:23.072Z,93.33
2019-03-18T15:50:49.308Z,93.57
2019-03-18T15:53:15.559Z,93.94
2019-03-18T15:55:41.835Z,93.74
2019-03-18T15:58:08.065Z,93.70
2019-03-18T16:00:34.325Z,93.95
2019-03-18T16:03:00.570Z,94.13
2019-03-18T16:05:26.812Z,94.47
2019-03-18T16:07:53.053Z,94.03
2019-03-18T16:10:19.504Z,94.58
2019-03-18T16:12:45.732Z,94.42
2019-03-18T16:15:53.280Z,94.48
2019-03-18T16:18:19.531Z,94.20
2019-03-18T16:20:45.781Z,94.14
2019-03-18T16:23:12.024Z,94.37
2019-03-18T16:25:38.272Z,94.60
2019-03-18T16:28:04.516Z,95.26
2019-03-18T16:30:37.760Z,94.61
2019-03-18T16:33:03.987Z,94.88
2019-03-18T16:35:30.232Z,95.40
2019-03-18T16:37:56.465Z,95.50
2019-03-18T16:41:04.028Z,95.21
2019-03-18T16:43:30.300Z,95.24
2019-03-18T16:45:56.520Z,95.03
2019-03-18T16:48:22.752Z,95.57
2019-03-18T16:50:49.018Z,95.77
2019-03-18T16:53:15.254Z,96.18
2019-03-18T16:55:41.492Z,95.62
2019-03-18T16:58:07.724Z,96.10
2019-03-18T17:00:34.028Z,96.13
2019-03-18T17:03:00.260Z,95.56
2019-03-18T17:05:26.499Z,95.49
2019-03-18T17:07:54.187Z,95.92
2019-03-18T17:10:20.930Z,95.70
2019-03-18T17:12:47.194Z,95.90
2019-03-18T17:15:54.761Z,95.33
2019-03-18T17:18:20.994Z,95.28
2019-03-18T17:20:47.235Z,95.61
2019-03-18T17:23:13.470Z,95.97
2019-03-18T17:25:39.731Z,95.40
2019-03-18T17:28:05.974Z,94.69
2019-03-18T17:30:32.208Z,94.62
2019-03-18T17:32:58.458Z,94.88
2019-03-18T17:35:24.706Z,94.17
2019-03-18T17:37:50.964Z,94.15
2019-03-18T17:40:38.754Z,94.98
2019-03-18T17:43:05.011Z,95.45
2019-03-18T17:45:31.246Z,94.86
2019-03-18T17:47:57.502Z,94.75
2019-03-18T17:53:37.048Z,95.18
2019-03-18T17:56:03.322Z,95.22
2019-03-18T17:58:29.567Z,95.10
2019-03-18T18:03:43.416Z,94.74
2019-03-18T18:06:09.680Z,94.26
2019-03-18T18:08:35.925Z,95.06
2019-03-18T18:11:02.156Z,94.44
2019-03-18T18:13:28.408Z,95.10
2019-03-18T18:15:54.646Z,93.15
2019-03-18T18:18:20.941Z,93.25
2019-03-18T18:20:47.166Z,94.16
2019-03-18T18:23:14.924Z,95.00
2019-03-18T18:25:41.563Z,94.30
2019-03-18T18:28:07.809Z,94.79
2019-03-18T18:30:34.046Z,95.14
2019-03-18T18:33:00.288Z,94.37
2019-03-18T18:35:26.522Z,95.12
2019-03-18T18:37:52.765Z,94.25
2019-03-18T18:43:32.279Z,93.52
2019-03-18T18:45:58.515Z,93.87
2019-03-18T18:48:24.771Z,93.70
2019-03-18T18:50:51.087Z,94.31
2019-03-18T18:53:26.191Z,94.23
2019-03-18T18:55:45.546Z,93.45
2019-03-18T18:58:11.785Z,94.01
2019-03-18T19:00:38.027Z,94.53
2019-03-18T19:03:04.257Z,93.59
2019-03-18T19:05:30.504Z,93.51
2019-03-18T19:07:57.759Z,93.42
2019-03-18T19:10:24.884Z,93.61
2019-03-18T19:12:51.132Z,93.52
2019-03-18T19:15:38.233Z,94.28
2019-03-18T19:18:04.475Z,93.35
2019-03-18T19:20:30.726Z,93.26
2019-03-18T19:22:57.237Z,93.40
2019-03-18T19:25:23.693Z,93.28
2019-03-18T19:27:50.208Z,94.12
2019-03-18T19:30:36.212Z,93.85
2019-03-18T19:33:02.456Z,94.12
2019-03-18T19:35:29.030Z,92.88
2019-03-18T19:37:56.908Z,92.87
2019-03-18T19:41:04.523Z,92.80
2019-03-18T19:43:30.811Z,93.29
2019-03-18T19:45:57.055Z,93.47
2019-03-18T19:48:23.289Z,93.43
2019-03-18T19:50:49.587Z,93.89
2019-03-18T19:53:15.827Z,93.95
2019-03-18T19:55:42.081Z,93.57
2019-03-18T19:58:08.317Z,93.68
2019-03-18T20:00:34.569Z,94.73
2019-03-18T20:03:00.809Z,94.52
2019-03-18T20:05:27.067Z,94.96
2019-03-18T20:07:53.323Z,93.99
2019-03-18T20:11:00.877Z,94.23
2019-03-18T20:13:27.122Z,93.58
2019-03-18T20:15:53.405Z,93.18
2019-03-18T20:18:19.644Z,93.45
2019-03-18T20:20:45.930Z,93.10
2019-03-18T20:23:12.170Z,92.32
2019-03-18T20:25:38.412Z,92.45
2019-03-18T20:28:04.665Z,91.95
2019-03-18T20:30:30.898Z,92.58
2019-03-18T20:32:57.162Z,93.80
2019-03-18T20:38:36.590Z,92.44
2019-03-18T20:41:02.834Z,91.98
2019-03-18T20:43:30.133Z,92.55
2019-03-18T20:45:57.238Z,92.41
2019-03-18T20:48:23.504Z,93.21
2019-03-18T20:50:49.803Z,92.16
2019-03-18T20:53:16.040Z,93.59
2019-03-18T20:55:42.279Z,92.35
2019-03-18T20:58:08.529Z,91.75
2019-03-18T21:00:34.767Z,90.63
2019-03-18T21:03:01.020Z,92.08
2019-03-18T21:05:27.258Z,92.84
2019-03-18T21:07:53.529Z,92.92
2019-03-18T21:10:41.674Z,92.95
2019-03-18T21:13:07.948Z,91.84
2019-03-18T21:15:34.179Z,91.85
2019-03-18T21:18:00.484Z,93.45
2019-03-18T21:23:27.656Z,90.91
2019-03-18T21:25:53.885Z,91.86
2019-03-18T21:28:20.128Z,90.58
2019-03-18T21:30:46.359Z,91.59
2019-03-18T21:33:12.671Z,90.74
2019-03-18T21:35:38.931Z,91.77
2019-03-18T21:38:05.177Z,89.90
2019-03-18T21:40:31.419Z,90.49
2019-03-18T21:42:57.647Z,91.09
2019-03-18T21:45:24.052Z,92.23
2019-03-18T21:47:50.320Z,91.10
2019-03-18T21:50:57.885Z,90.75
2019-03-18T21:53:24.136Z,90.09
2019-03-18T21:55:50.391Z,89.57
2019-03-18T21:58:16.631Z,89.52
2019-03-18T22:00:42.904Z,89.90
2019-03-18T22:03:09.137Z,89.92
2019-03-18T22:05:35.373Z,89.07
2019-03-18T22:08:01.621Z,89.07
2019-03-18T22:10:27.862Z,88.80
2019-03-18T22:12:54.095Z,88.40
2019-03-18T22:15:20.335Z,89.52
2019-03-18T22:17:46.553Z,88.43
2019-03-18T22:20:34.344Z,90.11
2019-03-18T22:23:00.574Z,89.05
2019-03-18T22:25:26.863Z,87.88
2019-03-18T22:27:53.049Z,89.95
2019-03-18T22:30:19.295Z,89.44
2019-03-18T22:35:35.638Z,90.45
2019-03-18T22:38:01.859Z,89.95
2019-03-18T22:40:28.099Z,89.37
2019-03-18T22:42:54.328Z,89.40
2019-03-18T22:45:20.564Z,89.11
2019-03-18T22:47:46.797Z,89.93
2019-03-18T22:50:54.350Z,90.12
2019-03-18T22:53:20.599Z,89.49
2019-03-18T22:55:46.850Z,89.01
2019-03-18T22:58:13.104Z,89.29
2019-03-18T23:00:59.108Z,89.19
2019-03-18T23:03:25.347Z,90.12
2019-03-18T23:05:51.597Z,90.33
2019-03-18T23:08:17.827Z,89.98
2019-03-18T23:10:44.068Z,90.33
2019-03-18T23:13:10.302Z,89.48
2019-03-18T23:15:36.531Z,88.80
2019-03-18T23:21:02.587Z,89.25
2019-03-18T23:23:28.827Z,88.72
2019-03-18T23:25:55.095Z,89.52
2019-03-18T23:28:21.324Z,90.59
2019-03-18T23:30:47.561Z,90.43
2019-03-18T23:33:13.811Z,89.61
2019-03-18T23:35:40.032Z,89.71
2019-03-18T23:38:06.271Z,89.81
2019-03-18T23:40:32.500Z,88.87
2019-03-18T23:42:58.761Z,89.95
2019-03-18T23:45:24.997Z,89.97
2019-03-18T23:47:51.237Z,89.43
2019-03-18T23:50:17.570Z,88.95
2019-03-18T23:52:43.854Z,89.25
2019-03-18T23:55:51.403Z,89.14
2019-03-18T23:58:17.674Z,89.00
